createdAt,value
2022-09-04T00:00:02.750Z,11.07
2022-09-04T00:02:54.638Z,11.30
2022-09-04T00:05:28.705Z,10.75
2022-09-04T00:08:14.602Z,11.73
2022-09-04T00:10:51.685Z,11.90
2022-09-04T00:13:23.411Z,10.73
2022-09-04T00:15:59.189Z,10.38
2022-09-04T00:18:35.295Z,10.93
2022-09-04T00:21:13.354Z,10.27
2022-09-04T00:23:45.542Z,10.32
2022-09-04T00:26:22.391Z,10.00
2022-09-04T00:28:54.764Z,9.80
2022-09-04T00:31:29.168Z,10.30
2022-09-04T00:34:08.136Z,9.93
2022-09-04T00:36:40.575Z,10.68
2022-09-04T00:39:14.122Z,10.60
2022-09-04T00:41:56.116Z,11.07
2022-09-04T00:44:46.028Z,10.95
2022-09-04T00:47:34.178Z,11.32
2022-09-04T00:50:19.711Z,11.15
2022-09-04T00:53:10.134Z,10.90
2022-09-04T00:55:56.863Z,11.68
2022-09-04T00:58:49.559Z,11.80
2022-09-04T01:01:24.408Z,11.52
2022-09-04T01:04:24.687Z,11.52
2022-09-04T01:07:09.259Z,10.00
2022-09-04T01:10:10.656Z,11.07
2022-09-04T01:12:45.990Z,10.82
2022-09-04T01:15:17.867Z,10.60
2022-09-04T01:18:05.286Z,10.55
2022-09-04T01:20:53.271Z,10.20
2022-09-04T01:23:57.074Z,10.77
2022-09-04T01:26:37.594Z,10.50
2022-09-04T01:29:19.914Z,9.93
2022-09-04T01:31:56.046Z,9.88
2022-09-04T01:34:36.392Z,10.10
2022-09-04T01:37:19.069Z,9.40
2022-09-04T01:39:58.032Z,9.23
2022-09-04T01:42:35.563Z,9.27
2022-09-04T01:45:06.536Z,9.52
2022-09-04T01:47:39.270Z,8.85
2022-09-04T01:50:12.282Z,8.95
2022-09-04T01:52:49.212Z,9.85
2022-09-04T01:55:27.362Z,9.25
2022-09-04T01:58:16.286Z,9.07
2022-09-04T02:00:57.580Z,9.52
2022-09-04T02:03:31.768Z,9.13
2022-09-04T02:06:09.650Z,9.60
2022-09-04T02:08:56.366Z,9.25
2022-09-04T02:11:28.441Z,9.02
2022-09-04T02:14:17.899Z,9.90
2022-09-04T02:16:59.440Z,9.07
2022-09-04T02:19:40.220Z,8.65
2022-09-04T02:22:24.785Z,9.02
2022-09-04T02:25:02.143Z,8.57
2022-09-04T02:27:42.648Z,9.25
2022-09-04T02:30:14.608Z,9.00
2022-09-04T02:32:50.378Z,9.10
2022-09-04T02:35:25.126Z,9.25
2022-09-04T02:38:05.412Z,9.15
2022-09-04T02:40:42.980Z,9.82
2022-09-04T02:43:28.272Z,9.48
2022-09-04T02:46:05.605Z,9.13
2022-09-04T02:48:44.874Z,9.43
2022-09-04T02:51:40.268Z,8.70
2022-09-04T02:54:17.927Z,9.23
2022-09-04T02:56:56.224Z,9.75
2022-09-04T02:59:42.289Z,9.02
2022-09-04T03:02:22.616Z,8.88
2022-09-04T03:04:57.173Z,9.10
2022-09-04T03:07:32.676Z,9.02
2022-09-04T03:10:10.139Z,8.77
2022-09-04T03:12:46.208Z,9.02
2022-09-04T03:15:25.088Z,9.27
2022-09-04T03:18:04.562Z,9.32
2022-09-04T03:20:40.514Z,9.30
2022-09-04T03:23:16.288Z,8.93
2022-09-04T03:26:07.426Z,9.60
2022-09-04T03:28:44.808Z,9.32
2022-09-04T03:31:24.592Z,9.05
2022-09-04T03:34:03.141Z,8.55
2022-09-04T03:36:43.798Z,9.02
2022-09-04T03:39:22.717Z,8.48
2022-09-04T03:42:05.224Z,9.18
2022-09-04T03:44:45.978Z,7.90
2022-09-04T03:47:21.446Z,8.27
2022-09-04T03:50:03.994Z,8.85
2022-09-04T03:52:41.518Z,8.68
2022-09-04T03:55:31.432Z,9.00
2022-09-04T03:58:16.170Z,9.77
2022-09-04T04:00:49.312Z,9.13
2022-09-04T04:03:43.810Z,9.48
2022-09-04T04:06:23.697Z,9.55
2022-09-04T04:09:18.968Z,9.15
2022-09-04T04:12:08.575Z,8.82
2022-09-04T04:14:57.317Z,9.60
2022-09-04T04:17:39.859Z,8.95
2022-09-04T04:20:22.167Z,9.55
2022-09-04T04:23:09.028Z,8.95
2022-09-04T04:25:52.294Z,8.93
2022-09-04T04:28:42.246Z,9.15
2022-09-04T04:31:18.537Z,8.98
2022-09-04T04:33:57.387Z,8.65
2022-09-04T04:36:36.554Z,8.55
2022-09-04T04:39:19.621Z,7.35
2022-09-04T04:42:07.157Z,6.85
2022-09-04T04:45:33.055Z,7.22
2022-09-04T04:48:40.586Z,7.82
2022-09-04T04:51:20.478Z,7.15
2022-09-04T04:53:56.659Z,8.40
2022-09-04T04:56:34.825Z,7.68
2022-09-04T04:59:20.663Z,7.15
2022-09-04T05:02:00.235Z,7.60
2022-09-04T05:04:40.523Z,7.55
2022-09-04T05:07:14.872Z,6.95
2022-09-04T05:09:49.087Z,6.95
2022-09-04T05:12:30.273Z,7.13
2022-09-04T05:15:06.184Z,7.45
2022-09-04T05:17:40.761Z,6.75
2022-09-04T05:20:36.590Z,6.32
2022-09-04T05:23:18.130Z,5.20
2022-09-04T05:25:53.437Z,5.28
2022-09-04T05:28:31.239Z,5.07
2022-09-04T05:31:10.321Z,6.00
2022-09-04T05:33:46.083Z,5.55
2022-09-04T05:36:22.053Z,5.20
2022-09-04T05:39:04.447Z,5.55
2022-09-04T05:41:41.114Z,5.15
2022-09-04T05:44:31.265Z,4.78
2022-09-04T05:47:12.419Z,5.30
2022-09-04T05:50:04.004Z,5.20
2022-09-04T05:53:14.792Z,5.40
2022-09-04T05:56:07.454Z,4.72
2022-09-04T05:58:55.277Z,5.00
2022-09-04T06:01:53.280Z,5.38
2022-09-04T06:04:44.193Z,5.88
2022-09-04T06:07:19.334Z,6.05
2022-09-04T06:10:00.356Z,5.47
2022-09-04T06:13:07.565Z,5.80
2022-09-04T06:15:49.021Z,6.30
2022-09-04T06:18:40.429Z,6.00
2022-09-04T06:21:29.116Z,6.00
2022-09-04T06:24:26.985Z,6.30
2022-09-04T06:27:27.222Z,5.80
2022-09-04T06:30:07.166Z,6.70
2022-09-04T06:33:08.528Z,6.75
2022-09-04T06:35:55.997Z,6.13
2022-09-04T06:38:47.462Z,6.68
2022-09-04T06:41:37.737Z,7.03
2022-09-04T06:44:28.846Z,6.22
2022-09-04T06:47:08.804Z,6.43
2022-09-04T06:49:47.529Z,6.40
2022-09-04T06:52:23.685Z,6.07
2022-09-04T06:55:00.347Z,5.90
2022-09-04T06:58:11.530Z,6.03
2022-09-04T07:00:46.692Z,6.03
2022-09-04T07:03:32.802Z,6.55
2022-09-04T07:06:12.426Z,6.30
2022-09-04T07:08:59.167Z,6.50
2022-09-04T07:11:42.372Z,6.65
2022-09-04T07:14:29.762Z,6.38
2022-09-04T07:17:08.154Z,6.78
2022-09-04T07:20:11.609Z,7.25
2022-09-04T07:23:03.820Z,6.53
2022-09-04T07:25:45.534Z,6.75
2022-09-04T07:28:30.913Z,6.40
2022-09-04T07:31:05.459Z,6.70
2022-09-04T07:33:42.419Z,6.35
2022-09-04T07:36:16.844Z,5.97
2022-09-04T07:38:52.256Z,6.30
2022-09-04T07:41:33.837Z,7.15
2022-09-04T07:44:08.348Z,6.22
2022-09-04T07:46:46.364Z,6.80
2022-09-04T07:49:24.091Z,6.50
2022-09-04T07:51:58.564Z,6.55
2022-09-04T07:54:56.359Z,6.50
2022-09-04T07:57:47.664Z,6.07
2022-09-04T08:00:19.008Z,6.55
2022-09-04T08:03:28.421Z,6.88
2022-09-04T08:06:04.551Z,7.00
2022-09-04T08:09:02.339Z,6.80
2022-09-04T08:12:05.496Z,6.28
2022-09-04T08:14:53.273Z,6.15
2022-09-04T08:17:46.405Z,6.43
2022-09-04T08:20:28.998Z,6.53
2022-09-04T08:23:08.842Z,5.93
2022-09-04T08:25:55.999Z,6.38
2022-09-04T08:28:40.159Z,6.70
2022-09-04T08:31:24.419Z,6.68
2022-09-04T08:34:30.453Z,6.35
2022-09-04T08:37:08.143Z,6.03
2022-09-04T08:39:47.223Z,6.60
2022-09-04T08:42:40.907Z,6.32
2022-09-04T08:45:51.877Z,6.50
2022-09-04T08:49:01.733Z,6.15
2022-09-04T08:52:20.981Z,6.57
2022-09-04T08:55:21.131Z,5.97
2022-09-04T08:58:17.589Z,6.18
2022-09-04T09:01:20.632Z,6.82
2022-09-04T09:04:11.970Z,6.97
2022-09-04T09:07:14.869Z,6.43
2022-09-04T09:10:30.140Z,5.97
2022-09-04T09:13:35.840Z,6.50
2022-09-04T09:16:25.983Z,5.95
2022-09-04T09:19:19.778Z,6.70
2022-09-04T09:22:10.270Z,6.63
2022-09-04T09:25:11.394Z,6.15
2022-09-04T09:28:09.904Z,6.28
2022-09-04T09:30:53.411Z,6.18
2022-09-04T09:34:11.450Z,5.82
2022-09-04T09:37:09.214Z,6.28
2022-09-04T09:40:04.544Z,6.25
2022-09-04T09:42:54.511Z,5.85
2022-09-04T09:45:42.217Z,6.40
2022-09-04T09:48:49.534Z,6.00
2022-09-04T09:51:58.175Z,8.32
2022-09-04T09:55:04.526Z,5.78
2022-09-04T09:58:08.089Z,6.20
2022-09-04T10:00:47.450Z,6.15
2022-09-04T10:03:47.315Z,6.15
2022-09-04T10:07:01.499Z,6.40
2022-09-04T10:10:05.498Z,6.00
2022-09-04T10:13:12.215Z,6.00
2022-09-04T10:16:20.396Z,6.72
2022-09-04T10:19:29.292Z,6.78
2022-09-04T10:22:34.176Z,7.15
2022-09-04T10:25:38.559Z,7.00
2022-09-04T10:28:50.587Z,6.68
2022-09-04T10:31:47.921Z,6.38
2022-09-04T10:34:40.969Z,7.40
2022-09-04T10:37:25.692Z,7.15
2022-09-04T10:40:25.254Z,7.43
2022-09-04T10:43:09.780Z,7.22
2022-09-04T10:45:45.822Z,7.13
2022-09-04T10:48:41.743Z,7.20
2022-09-04T10:52:05.638Z,6.90
2022-09-04T10:55:17.835Z,6.63
2022-09-04T10:58:01.332Z,6.75
2022-09-04T11:00:39.069Z,6.80
2022-09-04T11:03:40.310Z,6.72
2022-09-04T11:06:49.477Z,7.32
2022-09-04T11:09:41.688Z,7.22
2022-09-04T11:12:41.118Z,7.13
2022-09-04T11:15:36.664Z,6.88
2022-09-04T11:18:49.230Z,6.72
2022-09-04T11:22:06.572Z,6.45
2022-09-04T11:25:08.608Z,6.65
2022-09-04T11:28:06.047Z,5.93
2022-09-04T11:30:53.955Z,6.28
2022-09-04T11:34:05.485Z,6.85
2022-09-04T11:37:12.028Z,7.55
2022-09-04T11:40:04.534Z,6.35
2022-09-04T11:42:47.214Z,6.85
2022-09-04T11:45:42.591Z,7.00
2022-09-04T11:48:49.794Z,6.55
2022-09-04T11:51:45.944Z,5.88
2022-09-04T11:54:57.535Z,6.30
2022-09-04T11:57:35.074Z,6.35
2022-09-04T12:00:11.799Z,5.80
2022-09-04T12:03:05.993Z,6.20
2022-09-04T12:05:51.296Z,6.22
2022-09-04T12:08:48.163Z,5.65
2022-09-04T12:11:51.909Z,5.60
2022-09-04T12:14:41.542Z,6.43
2022-09-04T12:17:33.659Z,6.00
2022-09-04T12:20:31.028Z,6.10
2022-09-04T12:23:28.445Z,6.10
2022-09-04T12:26:30.404Z,5.80
2022-09-04T12:29:29.118Z,6.10
2022-09-04T12:32:33.314Z,6.20
2022-09-04T12:35:36.187Z,5.82
2022-09-04T12:38:24.993Z,6.20
2022-09-04T12:41:03.407Z,6.40
2022-09-04T12:43:53.696Z,5.95
2022-09-04T12:46:41.737Z,6.32
2022-09-04T12:49:36.139Z,6.65
2022-09-04T12:52:19.295Z,6.15
2022-09-04T12:55:01.532Z,5.57
2022-09-04T12:57:41.262Z,6.63
2022-09-04T13:00:13.468Z,5.82
2022-09-04T13:03:02.282Z,6.18
2022-09-04T13:06:04.126Z,6.00
2022-09-04T13:08:42.805Z,5.55
2022-09-04T13:11:27.878Z,5.45
2022-09-04T13:14:27.158Z,4.95
2022-09-04T13:17:09.291Z,5.30
2022-09-04T13:19:48.496Z,5.55
2022-09-04T13:22:28.962Z,5.63
2022-09-04T13:25:08.708Z,5.75
2022-09-04T13:27:58.419Z,4.93
2022-09-04T13:30:29.088Z,4.68
2022-09-04T13:33:13.851Z,4.63
2022-09-04T13:35:59.412Z,4.97
2022-09-04T13:39:13.913Z,4.57
2022-09-04T13:42:26.053Z,4.47
2022-09-04T13:45:02.418Z,4.75
2022-09-04T13:47:40.082Z,4.60
2022-09-04T13:50:17.409Z,4.50
2022-09-04T13:52:52.310Z,4.75
2022-09-04T13:55:24.948Z,4.78
2022-09-04T13:58:00.999Z,4.25
2022-09-04T14:00:33.210Z,4.07
2022-09-04T14:03:05.998Z,4.80
2022-09-04T14:05:37.716Z,5.50
2022-09-04T14:08:12.598Z,4.55
2022-09-04T14:11:08.261Z,5.13
2022-09-04T14:13:52.280Z,5.40
2022-09-04T14:16:24.031Z,5.65
2022-09-04T14:19:13.471Z,4.90
2022-09-04T14:22:03.595Z,5.65
2022-09-04T14:24:42.150Z,5.53
2022-09-04T14:27:19.789Z,5.85
2022-09-04T14:30:02.064Z,6.72
2022-09-04T14:32:45.323Z,6.50
2022-09-04T14:35:21.072Z,6.03
2022-09-04T14:38:14.660Z,6.05
2022-09-04T14:40:56.853Z,5.50
2022-09-04T14:43:40.329Z,5.57
2022-09-04T14:46:16.690Z,6.38
2022-09-04T14:48:51.207Z,6.47
2022-09-04T14:51:34.392Z,6.00
2022-09-04T14:54:05.228Z,5.90
2022-09-04T14:56:42.638Z,5.60
2022-09-04T14:59:19.213Z,5.45
2022-09-04T15:02:03.931Z,5.88
2022-09-04T15:04:46.846Z,5.72
2022-09-04T15:07:29.800Z,5.75
2022-09-04T15:10:15.392Z,5.93
2022-09-04T15:12:51.131Z,5.75
2022-09-04T15:15:24.089Z,5.85
2022-09-04T15:18:01.892Z,6.38
2022-09-04T15:20:36.159Z,6.07
2022-09-04T15:23:14.053Z,5.40
2022-09-04T15:25:59.725Z,6.43
2022-09-04T15:28:34.676Z,5.43
2022-09-04T15:31:16.220Z,5.95
2022-09-04T15:33:47.726Z,5.90
2022-09-04T15:36:21.009Z,5.97
2022-09-04T15:38:53.728Z,5.80
2022-09-04T15:41:36.066Z,6.13
2022-09-04T15:44:15.505Z,6.20
2022-09-04T15:46:51.371Z,6.25
2022-09-04T15:49:45.259Z,6.50
2022-09-04T15:52:31.028Z,5.88
2022-09-04T15:55:19.480Z,5.97
2022-09-04T15:58:01.533Z,5.90
2022-09-04T16:00:32.133Z,6.22
2022-09-04T16:03:12.433Z,6.22
2022-09-04T16:05:45.660Z,6.32
2022-09-04T16:08:23.698Z,6.30
2022-09-04T16:11:00.521Z,6.30
2022-09-04T16:13:58.223Z,6.18
2022-09-04T16:16:33.969Z,6.45
2022-09-04T16:19:13.312Z,6.32
2022-09-04T16:21:49.505Z,5.63
2022-09-04T16:24:20.976Z,6.60
2022-09-04T16:26:52.304Z,6.57
2022-09-04T16:29:31.244Z,6.45
2022-09-04T16:32:00.336Z,6.05
2022-09-04T16:34:33.820Z,7.00
2022-09-04T16:37:11.786Z,6.35
2022-09-04T16:39:51.798Z,6.72
2022-09-04T16:42:24.863Z,6.35
2022-09-04T16:45:01.694Z,6.65
2022-09-04T16:47:39.268Z,6.88
2022-09-04T16:50:16.229Z,6.82
2022-09-04T16:52:50.018Z,6.45
2022-09-04T16:55:44.707Z,6.82
2022-09-04T16:58:35.522Z,6.50
2022-09-04T17:01:15.758Z,6.45
2022-09-04T17:04:14.889Z,7.18
2022-09-04T17:06:57.578Z,6.47
2022-09-04T17:09:32.219Z,7.18
2022-09-04T17:12:17.406Z,6.47
2022-09-04T17:14:52.692Z,6.68
2022-09-04T17:17:31.472Z,6.30
2022-09-04T17:20:09.704Z,6.43
2022-09-04T17:28:59.981Z,6.20
2022-09-04T17:29:14.872Z,6.60
2022-09-04T17:29:22.448Z,6.70
2022-09-04T17:34:01.650Z,6.63
2022-09-04T17:40:37.203Z,7.25
2022-09-04T17:40:50.142Z,7.30
2022-09-04T17:41:37.996Z,6.07
2022-09-04T17:44:02.040Z,6.78
2022-09-04T17:46:36.844Z,6.72
2022-09-04T17:49:17.659Z,7.00
2022-09-04T17:51:57.673Z,7.40
2022-09-04T17:54:30.412Z,6.95
2022-09-04T17:57:02.764Z,6.68
2022-09-04T17:59:41.412Z,7.25
2022-09-04T18:02:19.269Z,6.60
2022-09-04T18:04:53.703Z,7.18
2022-09-04T18:08:08.436Z,7.15
2022-09-04T18:10:25.534Z,7.53
2022-09-04T18:13:06.078Z,8.52
2022-09-04T18:15:45.161Z,9.30
2022-09-04T18:18:22.322Z,8.93
2022-09-04T18:20:58.967Z,8.98
2022-09-04T18:23:57.204Z,9.80
2022-09-04T18:26:39.913Z,9.55
2022-09-04T18:31:11.290Z,9.82
2022-09-04T18:37:09.629Z,10.25
2022-09-04T18:37:16.262Z,11.23
2022-09-04T18:39:00.581Z,10.77
2022-09-04T18:50:20.675Z,10.55
2022-09-04T18:50:33.445Z,10.65
2022-09-04T18:50:45.859Z,10.63
2022-09-04T18:51:14.003Z,11.77
2022-09-04T18:53:43.541Z,10.82
2022-09-04T18:56:20.678Z,11.38
2022-09-04T18:59:01.764Z,12.45
2022-09-04T19:01:39.700Z,11.70
2022-09-04T19:04:38.849Z,11.70
2022-09-04T19:07:12.037Z,12.73
2022-09-04T19:10:04.146Z,12.10
2022-09-04T19:12:47.204Z,13.18
2022-09-04T19:15:48.906Z,13.80
2022-09-04T19:18:26.726Z,13.43
2022-09-04T19:21:20.674Z,13.55
2022-09-04T19:23:54.832Z,13.45
2022-09-04T19:26:30.648Z,13.32
2022-09-04T19:29:10.301Z,15.18
2022-09-04T19:31:43.221Z,13.32
2022-09-04T19:34:19.562Z,13.82
2022-09-04T19:36:52.152Z,12.75
2022-09-04T19:45:53.655Z,13.55
2022-09-04T19:46:05.050Z,14.40
2022-09-04T19:46:16.441Z,14.63
2022-09-04T19:48:24.024Z,13.77
2022-09-04T19:53:32.276Z,13.70
2022-09-04T19:53:52.880Z,11.75
2022-09-04T19:56:29.896Z,11.98
2022-09-04T19:59:05.725Z,12.35
2022-09-04T20:01:48.082Z,12.77
2022-09-04T20:04:27.050Z,14.73
2022-09-04T20:07:02.683Z,13.07
2022-09-04T20:09:37.576Z,12.45
2022-09-04T20:12:19.369Z,12.90
2022-09-04T20:14:55.114Z,12.50
2022-09-04T20:17:39.831Z,11.75
2022-09-04T20:20:19.212Z,11.68
2022-09-04T20:22:53.431Z,11.88
2022-09-04T20:25:42.099Z,12.90
2022-09-04T20:28:24.965Z,12.43
2022-09-04T20:31:33.307Z,14.98
2022-09-04T20:34:08.202Z,14.23
2022-09-04T20:36:45.446Z,13.27
2022-09-04T20:39:24.654Z,14.88
2022-09-04T20:42:00.106Z,14.70
2022-09-04T20:44:45.823Z,14.68
2022-09-04T20:52:40.370Z,15.70
2022-09-04T20:52:52.043Z,14.90
2022-09-04T20:53:32.260Z,14.80
2022-09-04T20:56:36.113Z,15.00
2022-09-04T21:03:08.298Z,19.13
2022-09-04T21:03:23.559Z,15.43
2022-09-04T21:05:21.705Z,15.73
2022-09-04T21:07:57.537Z,16.00
2022-09-04T21:10:32.141Z,14.68
2022-09-04T21:13:13.802Z,15.23
2022-09-04T21:15:53.137Z,15.32
2022-09-04T21:19:28.336Z,13.40
2022-09-04T21:22:05.170Z,13.68
2022-09-04T21:25:08.933Z,13.98
2022-09-04T21:27:57.999Z,14.43
2022-09-04T21:30:54.109Z,12.80
2022-09-04T21:33:30.591Z,13.00
2022-09-04T21:36:25.559Z,12.85
2022-09-04T21:39:49.549Z,12.57
2022-09-04T21:42:41.349Z,11.20
2022-09-04T21:45:33.126Z,11.77
2022-09-04T21:48:42.455Z,11.15
2022-09-04T21:51:33.449Z,10.95
2022-09-04T21:59:38.082Z,10.32
2022-09-04T22:02:35.463Z,10.05
2022-09-04T22:02:45.895Z,9.95
2022-09-04T22:04:12.135Z,9.85
2022-09-04T22:10:25.089Z,9.40
2022-09-04T22:13:28.522Z,9.63
2022-09-04T22:13:46.422Z,9.50
2022-09-04T22:16:19.493Z,9.10
2022-09-04T22:19:15.990Z,10.02
2022-09-04T22:22:03.668Z,9.10
2022-09-04T22:25:07.896Z,9.85
2022-09-04T22:28:09.093Z,9.57
2022-09-04T22:31:01.325Z,9.88
2022-09-04T22:34:15.725Z,9.05
2022-09-04T22:37:14.479Z,9.18
2022-09-04T22:40:12.691Z,9.23
2022-09-04T22:42:51.622Z,9.23
2022-09-04T22:45:53.522Z,9.32
2022-09-04T22:48:44.109Z,9.50
2022-09-04T22:51:28.471Z,8.57
2022-09-04T22:54:10.569Z,9.68
2022-09-04T22:56:52.233Z,9.27
2022-09-04T22:59:45.477Z,8.93
2022-09-04T23:03:08.754Z,9.20
2022-09-04T23:06:18.883Z,7.95
2022-09-04T23:13:50.593Z,8.38
2022-09-04T23:13:57.990Z,8.07
2022-09-04T23:15:23.422Z,8.27
2022-09-04T23:20:45.493Z,8.43
2022-09-04T23:26:46.818Z,8.35
2022-09-04T23:26:47.174Z,8.23
2022-09-04T23:27:34.880Z,8.30
2022-09-04T23:30:25.045Z,8.57
2022-09-04T23:33:27.445Z,7.97
2022-09-04T23:36:03.289Z,7.47
2022-09-04T23:39:01.243Z,8.27
2022-09-04T23:41:52.940Z,8.38
2022-09-04T23:44:45.363Z,8.32
2022-09-04T23:47:48.733Z,8.32
2022-09-04T23:50:31.251Z,8.68
2022-09-04T23:53:09.237Z,9.15
2022-09-04T23:55:51.460Z,9.07
2022-09-04T23:58:55.761Z,8.63
